createdAt,value
2022-11-10T00:00:14.326Z,3.85
2022-11-10T00:03:08.301Z,8.90
2022-11-10T00:05:55.584Z,7.43
2022-11-10T00:08:41.430Z,9.23
2022-11-10T00:11:27.351Z,2.72
2022-11-10T00:14:31.758Z,6.57
2022-11-10T00:17:17.590Z,4.13
2022-11-10T00:20:04.613Z,5.47
2022-11-10T00:22:50.593Z,6.97
2022-11-10T00:25:36.403Z,8.85
2022-11-10T00:28:22.471Z,4.68
2022-11-10T00:31:08.294Z,9.55
2022-11-10T00:33:53.810Z,7.93
2022-11-10T00:36:40.162Z,5.05
2022-11-10T00:39:25.917Z,6.85
2022-11-10T00:42:11.853Z,4.20
2022-11-10T00:44:57.809Z,3.45
2022-11-10T00:47:45.933Z,3.75
2022-11-10T00:50:31.439Z,5.03
2022-11-10T00:53:17.433Z,5.75
2022-11-10T00:56:03.518Z,7.53
2022-11-10T00:58:49.515Z,7.40
2022-11-10T01:01:35.556Z,5.82
2022-11-10T01:04:21.366Z,9.02
2022-11-10T01:07:07.386Z,4.85
2022-11-10T01:09:53.267Z,8.52
2022-11-10T01:12:39.242Z,5.00
2022-11-10T01:15:27.780Z,5.22
2022-11-10T01:18:13.603Z,11.95
2022-11-10T01:20:59.738Z,7.35
2022-11-10T01:23:46.627Z,5.45
2022-11-10T01:26:32.547Z,9.00
2022-11-10T01:29:18.052Z,5.22
2022-11-10T01:32:03.650Z,4.38
2022-11-10T01:34:49.459Z,8.63
2022-11-10T01:37:35.675Z,10.27
2022-11-10T01:40:21.866Z,6.15
2022-11-10T01:43:10.606Z,7.43
2022-11-10T01:46:09.569Z,8.48
2022-11-10T01:48:59.839Z,4.40
2022-11-10T01:52:00.103Z,4.68
2022-11-10T01:54:48.931Z,5.22
2022-11-10T01:57:35.635Z,13.27
2022-11-10T02:00:22.131Z,5.55
2022-11-10T02:03:24.426Z,8.35
2022-11-10T02:06:12.464Z,8.40
2022-11-10T02:09:00.795Z,4.30
2022-11-10T02:11:47.659Z,10.50
2022-11-10T02:14:33.840Z,7.80
2022-11-10T02:17:19.457Z,8.80
2022-11-10T02:20:10.039Z,16.02
2022-11-10T02:22:56.038Z,6.78
2022-11-10T02:25:42.783Z,7.07
2022-11-10T02:28:28.975Z,10.25
2022-11-10T02:31:15.098Z,11.75
2022-11-10T02:34:00.852Z,11.82
2022-11-10T02:36:46.602Z,10.50
2022-11-10T02:39:32.705Z,3.95
2022-11-10T02:42:18.402Z,9.85
2022-11-10T02:45:04.790Z,9.63
2022-11-10T02:47:50.689Z,5.43
2022-11-10T02:50:36.564Z,7.75
2022-11-10T02:53:22.674Z,5.47
2022-11-10T02:56:09.176Z,7.03
2022-11-10T02:58:55.212Z,5.93
2022-11-10T03:01:41.239Z,3.28
2022-11-10T03:04:26.981Z,12.48
2022-11-10T03:07:12.897Z,12.10
2022-11-10T03:09:58.634Z,9.13
2022-11-10T03:12:44.566Z,10.65
2022-11-10T03:15:30.571Z,6.03
2022-11-10T03:18:16.415Z,9.07
2022-11-10T03:21:02.431Z,5.35
2022-11-10T03:23:49.340Z,8.07
2022-11-10T03:26:35.134Z,8.43
2022-11-10T03:29:21.096Z,5.82
2022-11-10T03:32:12.072Z,8.02
2022-11-10T03:34:57.985Z,8.38
2022-11-10T03:37:44.676Z,6.88
2022-11-10T03:40:30.416Z,6.07
2022-11-10T03:43:16.098Z,6.43
2022-11-10T03:46:02.152Z,7.65
2022-11-10T03:48:53.206Z,6.20
2022-11-10T03:51:38.875Z,13.40
2022-11-10T03:54:24.709Z,7.68
2022-11-10T03:57:10.784Z,8.60
2022-11-10T03:59:56.346Z,5.57
2022-11-10T04:02:42.163Z,11.40
2022-11-10T04:05:46.585Z,11.73
2022-11-10T04:08:50.941Z,12.27
2022-11-10T04:11:55.191Z,5.70
2022-11-10T04:14:59.544Z,8.20
2022-11-10T04:17:50.259Z,10.73
2022-11-10T04:20:35.958Z,9.25
2022-11-10T04:23:28.025Z,9.25
2022-11-10T04:26:30.056Z,6.57
2022-11-10T04:29:18.165Z,10.52
2022-11-10T04:32:04.387Z,6.13
2022-11-10T04:34:49.838Z,6.78
2022-11-10T04:37:35.717Z,5.80
2022-11-10T04:40:21.577Z,10.18
2022-11-10T04:43:07.466Z,6.93
2022-11-10T04:45:54.083Z,11.60
2022-11-10T04:48:39.983Z,6.32
2022-11-10T04:51:29.076Z,7.95
2022-11-10T04:54:14.707Z,12.18
2022-11-10T04:57:00.592Z,11.35
2022-11-10T04:59:46.403Z,9.70
2022-11-10T05:02:36.887Z,11.35
2022-11-10T05:05:25.334Z,9.90
2022-11-10T05:08:11.204Z,6.22
2022-11-10T05:10:57.186Z,6.25
2022-11-10T05:13:44.320Z,10.32
2022-11-10T05:16:30.096Z,9.55
2022-11-10T05:19:16.064Z,11.02
2022-11-10T05:22:01.664Z,6.68
2022-11-10T05:24:47.541Z,7.75
2022-11-10T05:27:33.238Z,10.93
2022-11-10T05:30:19.115Z,12.38
2022-11-10T05:33:05.856Z,6.28
2022-11-10T05:35:51.841Z,10.15
2022-11-10T05:38:43.011Z,5.47
2022-11-10T05:41:29.126Z,10.88
2022-11-10T05:44:15.065Z,6.45
2022-11-10T05:47:01.236Z,6.90
2022-11-10T05:49:46.958Z,9.30
2022-11-10T05:52:32.872Z,5.65
2022-11-10T05:55:24.711Z,12.30
2022-11-10T05:58:10.553Z,14.63
2022-11-10T06:00:57.151Z,6.18
2022-11-10T06:03:42.982Z,13.95
2022-11-10T06:06:28.648Z,10.27
2022-11-10T06:09:14.698Z,7.47
2022-11-10T06:12:01.567Z,13.95
2022-11-10T06:14:47.844Z,9.50
2022-11-10T06:17:33.998Z,9.00
2022-11-10T06:20:20.220Z,6.78
2022-11-10T06:23:07.055Z,12.88
2022-11-10T06:25:52.752Z,8.05
2022-11-10T06:28:38.402Z,5.85
2022-11-10T06:31:24.411Z,10.27
2022-11-10T06:34:10.002Z,10.68
2022-11-10T06:36:55.759Z,10.57
2022-11-10T06:39:41.781Z,11.30
2022-11-10T06:42:27.356Z,10.63
2022-11-10T06:45:13.192Z,12.75
2022-11-10T06:48:05.433Z,13.43
2022-11-10T06:50:51.232Z,17.20
2022-11-10T06:53:37.006Z,7.35
2022-11-10T06:56:22.758Z,11.77
2022-11-10T06:59:08.787Z,11.35
2022-11-10T07:01:54.716Z,12.15
2022-11-10T07:04:40.730Z,16.48
2022-11-10T07:07:26.637Z,21.63
2022-11-10T07:10:12.728Z,15.38
2022-11-10T07:12:59.873Z,11.73
2022-11-10T07:15:45.688Z,18.52
2022-11-10T07:18:31.590Z,11.73
2022-11-10T07:21:17.460Z,15.20
2022-11-10T07:24:03.405Z,18.55
2022-11-10T07:26:49.493Z,17.73
2022-11-10T07:29:35.274Z,12.90
2022-11-10T07:32:21.085Z,12.50
2022-11-10T07:35:07.210Z,16.42
2022-11-10T07:37:52.898Z,17.60
2022-11-10T07:40:39.276Z,13.93
2022-11-10T07:43:25.864Z,20.92
2022-11-10T07:46:11.869Z,16.35
2022-11-10T07:48:57.737Z,8.90
2022-11-10T07:51:43.850Z,17.33
2022-11-10T07:54:29.733Z,17.38
2022-11-10T07:57:15.486Z,14.07
2022-11-10T08:00:01.672Z,13.63
2022-11-10T08:02:47.547Z,14.23
2022-11-10T08:05:34.362Z,9.85
2022-11-10T08:08:19.994Z,7.50
2022-11-10T08:11:06.324Z,7.60
2022-11-10T08:13:52.195Z,3.97
2022-11-10T08:16:38.171Z,9.15
2022-11-10T08:19:24.077Z,11.98
2022-11-10T08:22:10.009Z,12.20
2022-11-10T08:24:55.916Z,8.02
2022-11-10T08:27:41.890Z,9.63
2022-11-10T08:30:28.625Z,5.32
2022-11-10T08:33:17.409Z,14.38
2022-11-10T08:36:03.112Z,8.07
2022-11-10T08:38:49.015Z,16.48
2022-11-10T08:41:34.801Z,8.73
2022-11-10T08:44:21.294Z,8.45
2022-11-10T08:47:07.127Z,6.95
2022-11-10T08:49:53.132Z,10.93
2022-11-10T08:52:39.152Z,13.65
2022-11-10T08:55:24.703Z,11.30
2022-11-10T08:58:19.999Z,8.02
2022-11-10T09:01:12.853Z,7.45
2022-11-10T09:03:58.532Z,8.02
2022-11-10T09:06:44.098Z,17.42
2022-11-10T09:09:30.735Z,12.18
2022-11-10T09:12:16.407Z,9.23
2022-11-10T09:15:02.401Z,11.40
2022-11-10T09:17:48.379Z,9.13
2022-11-10T09:20:36.482Z,8.93
2022-11-10T09:23:24.716Z,12.60
2022-11-10T09:26:11.748Z,7.63
2022-11-10T09:28:57.489Z,9.32
2022-11-10T09:31:44.760Z,8.13
2022-11-10T09:34:30.316Z,10.90
2022-11-10T09:37:16.257Z,9.38
2022-11-10T09:40:02.160Z,9.00
2022-11-10T09:42:49.062Z,14.90
2022-11-10T09:45:42.820Z,12.68
2022-11-10T09:48:35.985Z,9.65
2022-11-10T09:51:35.932Z,9.30
2022-11-10T09:54:30.601Z,15.38
2022-11-10T09:57:20.463Z,11.25
2022-11-10T10:00:06.698Z,6.65
2022-11-10T10:03:06.047Z,9.55
2022-11-10T10:06:11.189Z,11.18
2022-11-10T10:09:11.888Z,10.40
2022-11-10T10:12:13.725Z,13.73
2022-11-10T10:15:11.553Z,12.90
2022-11-10T10:18:07.294Z,14.40
2022-11-10T10:21:11.246Z,18.42
2022-11-10T10:24:10.436Z,9.80
2022-11-10T10:27:05.515Z,11.70
2022-11-10T10:29:51.331Z,9.32
2022-11-10T10:32:37.136Z,8.35
2022-11-10T10:35:23.272Z,8.82
2022-11-10T10:38:32.745Z,8.90
2022-11-10T10:41:25.571Z,13.77
2022-11-10T10:44:19.625Z,6.85
2022-11-10T10:47:05.376Z,7.82
2022-11-10T10:49:50.982Z,5.13
2022-11-10T10:52:37.099Z,4.65
2022-11-10T10:55:29.204Z,8.73
2022-11-10T10:58:31.611Z,13.48
2022-11-10T11:01:17.187Z,8.50
2022-11-10T11:04:26.178Z,13.88
2022-11-10T11:07:31.938Z,7.53
2022-11-10T11:10:23.581Z,7.82
2022-11-10T11:13:24.872Z,10.63
2022-11-10T11:16:12.351Z,13.73
2022-11-10T11:18:58.813Z,30.48
2022-11-10T11:22:04.880Z,128.25
2022-11-10T11:24:53.249Z,150.50
2022-11-10T11:27:44.652Z,45.58
2022-11-10T11:30:59.394Z,10.07
2022-11-10T11:33:49.024Z,11.55
2022-11-10T11:36:52.137Z,21.23
2022-11-10T11:40:12.738Z,8.13
2022-11-10T11:43:10.158Z,11.52
2022-11-10T11:46:00.040Z,5.68
2022-11-10T11:48:57.472Z,10.15
2022-11-10T11:52:00.944Z,5.72
2022-11-10T11:55:18.417Z,5.55
2022-11-10T11:58:28.288Z,9.93
2022-11-10T12:01:19.765Z,7.25
2022-11-10T12:04:21.810Z,3.67
2022-11-10T12:07:25.695Z,6.55
2022-11-10T12:10:14.583Z,8.15
2022-11-10T12:13:30.288Z,5.45
2022-11-10T12:16:35.667Z,4.95
2022-11-10T12:19:30.158Z,5.35
2022-11-10T12:22:44.527Z,8.38
2022-11-10T12:25:57.285Z,4.97
2022-11-10T12:28:53.244Z,9.65
2022-11-10T12:31:41.257Z,8.38
2022-11-10T12:34:55.995Z,7.57
2022-11-10T12:38:03.528Z,5.93
2022-11-10T12:40:53.770Z,6.35
2022-11-10T12:43:58.250Z,5.55
2022-11-10T12:46:49.467Z,9.20
2022-11-10T12:49:42.799Z,6.15
2022-11-10T12:52:46.941Z,5.68
2022-11-10T12:55:56.651Z,8.88
2022-11-10T12:58:42.307Z,7.32
2022-11-10T13:01:28.184Z,9.27
2022-11-10T13:04:16.878Z,13.57
2022-11-10T13:07:10.260Z,7.47
2022-11-10T13:10:26.090Z,7.03
2022-11-10T13:13:17.557Z,4.55
2022-11-10T13:16:03.407Z,6.80
2022-11-10T13:18:53.478Z,5.65
2022-11-10T13:21:51.472Z,5.22
2022-11-10T13:24:40.225Z,4.55
2022-11-10T13:27:41.264Z,3.60
2022-11-10T13:30:45.488Z,8.70
2022-11-10T13:33:37.113Z,5.13
2022-11-10T13:36:44.574Z,3.95
2022-11-10T13:39:32.236Z,5.75
2022-11-10T13:42:20.165Z,4.82
2022-11-10T13:45:34.138Z,5.57
2022-11-10T13:48:27.697Z,6.88
2022-11-10T13:51:20.398Z,3.47
2022-11-10T13:54:14.096Z,2.97
2022-11-10T13:57:08.235Z,3.60
2022-11-10T14:00:01.253Z,2.78
2022-11-10T14:02:55.014Z,3.05
2022-11-10T14:05:42.119Z,5.82
2022-11-10T14:08:30.996Z,2.65
2022-11-10T14:11:22.023Z,4.97
2022-11-10T14:14:46.027Z,5.85
2022-11-10T14:17:41.344Z,5.03
2022-11-10T14:20:32.684Z,3.20
2022-11-10T14:23:26.874Z,3.55
2022-11-10T14:26:22.844Z,4.00
2022-11-10T14:29:30.019Z,2.83
2022-11-10T14:32:24.868Z,3.45
2022-11-10T14:35:45.118Z,4.38
2022-11-10T14:38:34.005Z,6.00
2022-11-10T14:41:22.409Z,3.08
2022-11-10T14:44:15.444Z,2.97
2022-11-10T14:47:28.490Z,2.67
2022-11-10T14:50:16.988Z,3.92
2022-11-10T14:53:09.737Z,3.47
2022-11-10T14:55:56.118Z,6.00
2022-11-10T14:58:44.120Z,3.90
2022-11-10T15:01:35.258Z,3.67
2022-11-10T15:04:26.804Z,2.15
2022-11-10T15:07:13.147Z,5.50
2022-11-10T15:10:12.956Z,4.38
2022-11-10T15:13:17.745Z,5.20
2022-11-10T15:16:25.299Z,2.42
2022-11-10T15:19:29.166Z,5.97
2022-11-10T15:22:34.949Z,4.43
2022-11-10T15:25:23.700Z,2.90
2022-11-10T15:28:12.896Z,5.95
2022-11-10T15:31:05.614Z,2.95
2022-11-10T15:33:54.854Z,3.97
2022-11-10T15:36:40.876Z,4.15
2022-11-10T15:39:28.116Z,5.00
2022-11-10T15:42:23.383Z,7.25
2022-11-10T15:45:10.010Z,5.32
2022-11-10T15:47:56.117Z,7.13
2022-11-10T15:50:44.252Z,5.13
2022-11-10T15:53:37.402Z,4.13
2022-11-10T15:56:24.770Z,3.38
2022-11-10T15:59:11.020Z,3.47
2022-11-10T16:01:57.459Z,5.05
2022-11-10T16:04:43.225Z,4.97
2022-11-10T16:07:29.019Z,11.88
2022-11-10T16:10:15.247Z,3.95
2022-11-10T16:13:01.163Z,7.13
2022-11-10T16:15:47.392Z,7.63
2022-11-10T16:18:33.308Z,7.25
2022-11-10T16:21:25.299Z,5.32
2022-11-10T16:24:11.213Z,8.10
2022-11-10T16:26:57.695Z,10.57
2022-11-10T16:29:43.704Z,17.42
2022-11-10T16:32:29.551Z,18.23
2022-11-10T16:35:15.803Z,10.88
2022-11-10T16:38:02.115Z,7.32
2022-11-10T16:41:00.661Z,7.95
2022-11-10T16:43:46.680Z,6.40
2022-11-10T16:46:36.102Z,7.63
2022-11-10T16:49:27.462Z,5.95
2022-11-10T16:52:18.976Z,7.03
2022-11-10T16:55:05.008Z,5.53
2022-11-10T16:57:50.793Z,2.33
2022-11-10T17:00:37.601Z,8.43
2022-11-10T17:03:31.749Z,12.35
2022-11-10T17:06:20.992Z,13.10
2022-11-10T17:09:18.965Z,6.65
2022-11-10T17:12:05.798Z,4.53
2022-11-10T17:14:51.715Z,6.10
2022-11-10T17:17:38.241Z,6.10
2022-11-10T17:20:33.257Z,4.07
2022-11-10T17:23:22.504Z,6.15
2022-11-10T17:26:10.302Z,4.10
2022-11-10T17:28:56.537Z,3.95
2022-11-10T17:31:42.810Z,3.95
2022-11-10T17:34:28.625Z,9.20
2022-11-10T17:37:14.824Z,6.47
2022-11-10T17:40:17.308Z,14.95
2022-11-10T17:43:03.058Z,6.95
2022-11-10T17:45:49.426Z,7.25
2022-11-10T17:48:34.994Z,5.55
2022-11-10T17:51:22.780Z,4.13
2022-11-10T17:54:14.534Z,5.22
2022-11-10T17:57:00.361Z,10.13
2022-11-10T17:59:46.042Z,5.60
2022-11-10T18:02:32.436Z,10.82
2022-11-10T18:05:18.758Z,5.30
2022-11-10T18:08:04.514Z,5.88
2022-11-10T18:10:52.411Z,4.65
2022-11-10T18:13:39.661Z,7.30
2022-11-10T18:16:25.242Z,7.55
2022-11-10T18:19:11.328Z,6.20
2022-11-10T18:21:57.221Z,8.13
2022-11-10T18:24:43.004Z,6.95
2022-11-10T18:27:29.501Z,7.25
2022-11-10T18:30:17.025Z,5.05
2022-11-10T18:33:04.488Z,6.75
2022-11-10T18:35:50.337Z,5.43
2022-11-10T18:38:37.093Z,3.67
2022-11-10T18:41:42.288Z,7.45
2022-11-10T18:44:29.800Z,3.67
2022-11-10T18:47:15.683Z,4.93
2022-11-10T18:50:01.475Z,7.93
2022-11-10T18:52:48.281Z,4.63
2022-11-10T18:55:34.234Z,7.10
2022-11-10T18:58:20.102Z,5.40
2022-11-10T19:01:08.869Z,12.45
2022-11-10T19:03:54.784Z,4.63
2022-11-10T19:06:41.254Z,6.65
2022-11-10T19:09:30.653Z,6.53
2022-11-10T19:12:18.311Z,5.85
2022-11-10T19:15:06.304Z,5.80
2022-11-10T19:17:52.412Z,9.98
2022-11-10T19:20:39.850Z,10.48
2022-11-10T19:23:26.069Z,8.60
2022-11-10T19:26:22.720Z,9.43
2022-11-10T19:29:09.319Z,9.38
2022-11-10T19:31:55.135Z,6.88
2022-11-10T19:34:41.247Z,10.50
2022-11-10T19:37:32.011Z,9.88
2022-11-10T19:40:21.748Z,5.68
2022-11-10T19:43:08.183Z,4.68
2022-11-10T19:46:00.858Z,13.63
2022-11-10T19:48:46.976Z,9.82
2022-11-10T19:51:33.403Z,8.35
2022-11-10T19:54:19.166Z,9.70
2022-11-10T19:57:06.773Z,8.38
2022-11-10T19:59:52.495Z,11.10
2022-11-10T20:02:44.284Z,9.50
2022-11-10T20:05:31.687Z,7.05
2022-11-10T20:08:18.774Z,16.88
2022-11-10T20:11:14.014Z,6.45
2022-11-10T20:14:03.875Z,9.02
2022-11-10T20:16:49.966Z,6.50
2022-11-10T20:19:40.903Z,8.02
2022-11-10T20:22:27.189Z,7.13
2022-11-10T20:25:13.257Z,11.57
2022-11-10T20:28:05.981Z,15.60
2022-11-10T20:30:56.864Z,7.07
2022-11-10T20:33:43.389Z,9.40
2022-11-10T20:36:30.989Z,8.52
2022-11-10T20:39:17.854Z,7.45
2022-11-10T20:42:03.936Z,13.80
2022-11-10T20:44:49.852Z,8.68
2022-11-10T20:47:36.435Z,10.30
2022-11-10T20:50:24.522Z,8.25
2022-11-10T20:53:11.160Z,9.30
2022-11-10T20:55:59.744Z,8.27
2022-11-10T20:58:45.973Z,7.20
2022-11-10T21:01:33.465Z,8.63
2022-11-10T21:04:19.783Z,8.73
2022-11-10T21:07:05.434Z,12.02
2022-11-10T21:09:51.409Z,8.20
2022-11-10T21:12:49.372Z,9.25
2022-11-10T21:15:39.045Z,11.30
2022-11-10T21:18:30.811Z,7.60
2022-11-10T21:21:22.716Z,7.60
2022-11-10T21:24:09.329Z,7.15
2022-11-10T21:26:56.487Z,9.18
2022-11-10T21:29:42.798Z,8.68
2022-11-10T21:32:29.035Z,10.05
2022-11-10T21:35:15.703Z,12.40
2022-11-10T21:38:01.824Z,8.32
2022-11-10T21:40:47.726Z,9.77
2022-11-10T21:43:33.445Z,7.30
2022-11-10T21:46:19.426Z,7.20
2022-11-10T21:49:07.920Z,8.57
2022-11-10T21:51:54.036Z,6.07
2022-11-10T21:54:39.763Z,10.23
2022-11-10T21:57:25.909Z,7.75
2022-11-10T22:00:12.836Z,9.88
2022-11-10T22:03:03.482Z,9.45
2022-11-10T22:05:49.521Z,6.70
2022-11-10T22:08:36.437Z,9.05
2022-11-10T22:11:57.774Z,6.55
2022-11-10T22:15:02.052Z,10.05
2022-11-10T22:18:06.343Z,10.70
2022-11-10T22:20:52.151Z,7.72
2022-11-10T22:23:57.134Z,10.68
2022-11-10T22:26:43.161Z,11.07
2022-11-10T22:29:32.308Z,8.77
2022-11-10T22:32:17.971Z,13.32
2022-11-10T22:35:04.314Z,6.45
2022-11-10T22:37:49.757Z,8.60
2022-11-10T22:40:54.692Z,9.57
2022-11-10T22:43:59.042Z,9.43
2022-11-10T22:46:48.080Z,8.68
2022-11-10T22:49:33.720Z,8.13
2022-11-10T22:52:19.574Z,8.63
2022-11-10T22:55:05.750Z,7.95
2022-11-10T22:57:52.882Z,11.60
2022-11-10T23:00:38.622Z,7.40
2022-11-10T23:03:24.852Z,8.73
2022-11-10T23:06:10.955Z,11.23
2022-11-10T23:08:57.458Z,14.38
2022-11-10T23:11:43.244Z,9.38
2022-11-10T23:14:29.125Z,7.20
2022-11-10T23:17:15.114Z,8.27
2022-11-10T23:20:01.077Z,8.65
2022-11-10T23:22:47.066Z,13.73
2022-11-10T23:25:32.944Z,11.23
2022-11-10T23:28:18.715Z,15.23
2022-11-10T23:31:17.815Z,11.98
2022-11-10T23:34:03.369Z,13.70
2022-11-10T23:36:49.321Z,10.77
2022-11-10T23:39:37.420Z,7.85
2022-11-10T23:42:23.138Z,8.60
2022-11-10T23:45:10.004Z,9.68
2022-11-10T23:47:55.549Z,10.55
2022-11-10T23:50:41.582Z,10.90
2022-11-10T23:53:27.569Z,17.95
2022-11-10T23:56:14.063Z,11.80
2022-11-10T23:59:00.690Z,12.82
